createdAt,value
2022-12-05T00:00:37.005Z,20.48
2022-12-05T00:05:34.830Z,21.95
2022-12-05T00:10:29.032Z,33.38
2022-12-05T00:15:23.129Z,29.50
2022-12-05T00:20:17.056Z,27.70
2022-12-05T00:25:11.705Z,29.35
2022-12-05T00:30:06.863Z,32.78
2022-12-05T00:35:00.318Z,40.63
2022-12-05T00:39:54.110Z,39.90
2022-12-05T00:44:50.115Z,35.50
2022-12-05T00:49:44.545Z,37.90
2022-12-05T00:54:40.032Z,41.03
2022-12-05T00:59:34.098Z,36.13
2022-12-05T01:04:28.087Z,35.80
2022-12-05T01:09:22.222Z,37.38
2022-12-05T01:14:17.421Z,35.42
2022-12-05T01:19:30.481Z,40.58
2022-12-05T01:24:25.918Z,34.78
2022-12-05T01:29:22.126Z,40.00
2022-12-05T01:34:17.176Z,38.88
2022-12-05T01:39:10.909Z,55.90
2022-12-05T01:44:28.780Z,61.67
2022-12-05T01:49:34.711Z,41.08
2022-12-05T01:54:28.535Z,29.75
2022-12-05T01:59:23.089Z,28.73
2022-12-05T02:04:17.261Z,29.45
2022-12-05T02:09:10.848Z,25.17
2022-12-05T02:19:34.305Z,31.63
2022-12-05T02:24:58.638Z,26.80
2022-12-05T02:30:01.870Z,33.15
2022-12-05T02:35:08.381Z,22.80
2022-12-05T02:40:12.399Z,23.60
2022-12-05T02:45:10.063Z,25.60
2022-12-05T02:50:05.885Z,26.35
2022-12-05T02:54:59.951Z,31.25
2022-12-05T02:59:53.410Z,29.90
2022-12-05T03:04:47.706Z,32.47
2022-12-05T03:09:48.333Z,35.00
2022-12-05T03:15:10.081Z,27.60
2022-12-05T03:20:24.136Z,47.20
2022-12-05T03:25:18.556Z,38.15
2022-12-05T03:30:17.692Z,46.00
2022-12-05T03:35:32.865Z,30.08
2022-12-05T03:40:37.714Z,35.05
2022-12-05T03:45:41.052Z,35.05
2022-12-05T03:50:36.192Z,51.03
2022-12-05T03:55:32.202Z,43.65
2022-12-05T04:00:25.313Z,50.85
2022-12-05T04:05:24.859Z,46.38
2022-12-05T04:10:24.154Z,45.70
2022-12-05T04:15:25.142Z,45.35
2022-12-05T04:20:48.428Z,46.50
2022-12-05T04:26:38.696Z,44.88
2022-12-05T04:31:42.943Z,36.90
2022-12-05T04:36:48.673Z,33.50
2022-12-05T04:41:45.437Z,29.60
2022-12-05T04:46:40.825Z,35.92
2022-12-05T04:51:36.169Z,40.78
2022-12-05T04:56:32.513Z,38.45
2022-12-05T05:01:27.830Z,32.88
2022-12-05T05:06:21.391Z,39.97
2022-12-05T05:11:24.529Z,41.95
2022-12-05T05:16:23.037Z,39.05
2022-12-05T05:21:32.908Z,43.13
2022-12-05T05:26:27.414Z,43.35
2022-12-05T05:31:22.337Z,50.00
2022-12-05T05:36:15.292Z,51.55
2022-12-05T05:41:14.114Z,42.15
2022-12-05T05:46:07.915Z,45.53
2022-12-05T05:51:04.003Z,41.70
2022-12-05T05:55:57.533Z,50.75
2022-12-05T06:00:51.710Z,56.63
2022-12-05T06:05:50.063Z,56.08
2022-12-05T06:10:46.425Z,55.35
2022-12-05T06:20:34.205Z,66.38
2022-12-05T06:25:28.623Z,69.22
2022-12-05T06:30:22.585Z,71.43
2022-12-05T06:40:16.503Z,63.40
2022-12-05T06:45:11.191Z,89.53
2022-12-05T06:50:05.714Z,97.35
2022-12-05T06:55:00.993Z,87.50
2022-12-05T07:00:14.575Z,92.97
2022-12-05T07:05:09.027Z,105.03
2022-12-05T07:10:02.821Z,103.95
2022-12-05T07:14:57.299Z,104.57
2022-12-05T07:19:50.821Z,103.28
2022-12-05T07:24:44.382Z,96.05
2022-12-05T07:29:38.336Z,91.53
2022-12-05T07:39:25.701Z,103.07
2022-12-05T07:44:19.826Z,102.30
2022-12-05T07:49:13.052Z,106.22
2022-12-05T07:54:07.292Z,102.28
2022-12-05T07:59:01.422Z,107.55
2022-12-05T08:03:56.561Z,101.45
2022-12-05T08:08:52.049Z,102.57
2022-12-05T08:13:46.608Z,101.13
2022-12-05T08:18:40.257Z,108.82
2022-12-05T08:23:34.377Z,98.60
2022-12-05T08:28:28.447Z,97.97
2022-12-05T08:33:22.268Z,95.18
2022-12-05T08:38:15.964Z,95.90
2022-12-05T08:43:09.615Z,103.18
2022-12-05T08:48:03.791Z,95.50
2022-12-05T08:52:57.964Z,90.65
2022-12-05T08:57:52.214Z,90.63
2022-12-05T09:02:45.779Z,94.30
2022-12-05T09:07:39.960Z,89.30
2022-12-05T09:12:33.967Z,90.70
2022-12-05T09:17:27.772Z,94.65
2022-12-05T09:22:25.737Z,92.53
2022-12-05T09:27:19.563Z,94.18
2022-12-05T09:32:13.657Z,107.88
2022-12-05T09:37:30.779Z,97.82
2022-12-05T09:42:47.973Z,116.33
2022-12-05T09:47:52.732Z,120.75
2022-12-05T09:53:07.994Z,139.85
2022-12-05T09:58:03.319Z,127.32
2022-12-05T10:03:14.797Z,128.45
2022-12-05T10:08:39.071Z,119.20
2022-12-05T10:14:13.153Z,120.30
2022-12-05T10:24:16.017Z,124.97
2022-12-05T10:29:29.688Z,110.10
2022-12-05T10:34:55.769Z,115.53
2022-12-05T10:39:50.982Z,121.63
2022-12-05T10:44:45.998Z,113.22
2022-12-05T10:49:39.077Z,108.90
2022-12-05T10:54:36.398Z,101.13
2022-12-05T10:59:46.510Z,117.13
2022-12-05T11:04:47.088Z,110.10
2022-12-05T11:09:39.895Z,94.65
2022-12-05T11:14:34.431Z,103.10
2022-12-05T11:19:36.725Z,119.90
2022-12-05T11:24:31.234Z,112.88
2022-12-05T11:29:33.661Z,106.07
2022-12-05T11:34:40.542Z,102.90
2022-12-05T11:39:40.276Z,101.43
2022-12-05T11:44:51.245Z,112.03
2022-12-05T11:50:10.238Z,121.00
2022-12-05T11:55:11.705Z,121.20
2022-12-05T12:00:19.511Z,130.32
2022-12-05T12:05:24.667Z,108.28
2022-12-05T12:10:30.373Z,110.00
2022-12-05T12:15:57.840Z,127.78
2022-12-05T12:21:19.263Z,120.32
2022-12-05T12:26:23.103Z,122.38
2022-12-05T12:36:20.190Z,157.27
2022-12-05T12:41:12.421Z,129.73
2022-12-05T12:46:26.171Z,137.05
2022-12-05T12:51:20.789Z,139.13
2022-12-05T12:56:39.415Z,144.52
2022-12-05T13:01:51.375Z,121.72
2022-12-05T13:06:53.076Z,118.03
2022-12-05T13:11:47.769Z,123.10
2022-12-05T13:16:49.772Z,115.43
2022-12-05T13:21:42.855Z,98.13
2022-12-05T13:26:36.391Z,99.47
2022-12-05T13:31:43.531Z,95.78
2022-12-05T13:37:01.648Z,104.32
2022-12-05T13:42:34.601Z,115.80
2022-12-05T13:47:31.087Z,130.15
2022-12-05T13:52:27.163Z,145.63
2022-12-05T13:57:38.964Z,165.13
2022-12-05T14:02:44.109Z,101.82
2022-12-05T14:07:40.760Z,103.28
2022-12-05T14:12:49.489Z,101.13
2022-12-05T14:17:43.715Z,84.15
2022-12-05T14:22:59.639Z,73.80
2022-12-05T14:28:38.286Z,70.97
2022-12-05T14:33:31.573Z,68.70
2022-12-05T14:38:30.230Z,64.90
2022-12-05T14:43:32.622Z,50.85
2022-12-05T14:48:35.419Z,48.78
2022-12-05T14:53:33.342Z,43.03
2022-12-05T14:58:51.212Z,38.75
2022-12-05T15:04:03.152Z,39.20
2022-12-05T15:09:35.031Z,43.05
2022-12-05T15:14:24.550Z,40.88
2022-12-05T15:19:24.415Z,57.63
2022-12-05T15:24:19.839Z,89.07
2022-12-05T15:29:21.348Z,45.78
2022-12-05T15:34:17.003Z,50.58
2022-12-05T15:39:25.971Z,76.15
2022-12-05T15:44:23.804Z,76.15
2022-12-05T15:49:28.630Z,67.20
2022-12-05T15:54:46.606Z,54.70
2022-12-05T16:00:07.128Z,58.83
2022-12-05T16:05:05.847Z,51.10
2022-12-05T16:10:00.757Z,47.80
2022-12-05T16:14:59.876Z,45.15
2022-12-05T16:19:54.446Z,41.42
2022-12-05T16:24:59.075Z,41.97
2022-12-05T16:30:17.831Z,35.90
2022-12-05T16:35:29.661Z,35.10
2022-12-05T16:40:25.555Z,32.00
2022-12-05T16:45:43.076Z,35.95
2022-12-05T16:50:36.153Z,35.20
2022-12-05T16:55:33.194Z,24.65
2022-12-05T17:00:30.598Z,25.58
2022-12-05T17:05:25.195Z,24.10
2022-12-05T17:10:19.355Z,23.80
2022-12-05T17:15:19.896Z,55.83
2022-12-05T17:20:15.329Z,29.60
2022-12-05T17:25:36.761Z,50.08
2022-12-05T17:30:31.072Z,113.97
2022-12-05T17:35:26.099Z,247.45
2022-12-05T17:40:20.184Z,101.10
2022-12-05T17:45:14.841Z,28.25
2022-12-05T17:50:12.354Z,29.55
2022-12-05T17:55:07.139Z,30.30
2022-12-05T18:00:01.012Z,27.73
2022-12-05T18:04:54.592Z,28.60
2022-12-05T18:09:47.680Z,26.48
2022-12-05T18:14:41.246Z,26.23
2022-12-05T18:24:31.060Z,26.73
2022-12-05T18:29:26.069Z,25.42
2022-12-05T18:34:19.521Z,24.25
2022-12-05T18:44:29.425Z,25.90
2022-12-05T18:49:23.146Z,26.90
2022-12-05T18:54:16.629Z,27.77
2022-12-05T19:04:07.529Z,27.50
2022-12-05T19:09:02.415Z,26.00
2022-12-05T19:13:57.341Z,25.92
2022-12-05T19:18:55.637Z,25.52
2022-12-05T19:23:49.454Z,29.42
2022-12-05T19:28:43.251Z,28.92
2022-12-05T19:33:39.558Z,25.58
2022-12-05T19:38:34.816Z,24.30
2022-12-05T19:43:30.508Z,23.67
2022-12-05T19:48:25.103Z,25.58
2022-12-05T19:53:19.736Z,24.25
2022-12-05T19:58:13.621Z,26.50
2022-12-05T20:03:11.960Z,22.50
2022-12-05T20:08:06.962Z,26.20
2022-12-05T20:13:02.734Z,26.00
2022-12-05T20:17:59.888Z,26.13
2022-12-05T20:22:54.233Z,25.58
2022-12-05T20:27:49.689Z,25.42
2022-12-05T20:32:44.214Z,25.73
2022-12-05T20:37:37.908Z,28.48
2022-12-05T20:42:32.738Z,28.08
2022-12-05T20:47:27.446Z,26.42
2022-12-05T20:52:21.009Z,28.23
2022-12-05T20:57:15.829Z,28.63
2022-12-05T21:02:08.909Z,32.30
2022-12-05T21:07:02.503Z,30.75
2022-12-05T21:11:56.288Z,30.05
2022-12-05T21:16:50.254Z,28.38
2022-12-05T21:21:43.231Z,30.40
2022-12-05T21:31:31.109Z,36.10
2022-12-05T21:36:25.973Z,40.22
2022-12-05T21:41:20.050Z,40.03
2022-12-05T21:46:14.161Z,37.30
2022-12-05T21:51:13.787Z,32.83
2022-12-05T21:56:11.728Z,36.03
2022-12-05T22:01:05.792Z,34.45
2022-12-05T22:06:09.337Z,30.58
2022-12-05T22:11:09.585Z,31.30
2022-12-05T22:16:03.032Z,28.00
2022-12-05T22:21:08.005Z,31.25
2022-12-05T22:26:08.208Z,27.20
2022-12-05T22:31:03.774Z,37.10
2022-12-05T22:36:00.313Z,29.52
2022-12-05T22:40:55.298Z,27.50
2022-12-05T22:45:49.145Z,25.02
2022-12-05T22:50:53.458Z,25.95
2022-12-05T22:55:47.219Z,23.25
2022-12-05T23:00:39.977Z,22.88
2022-12-05T23:05:33.758Z,23.55
2022-12-05T23:10:27.284Z,24.30
2022-12-05T23:20:14.991Z,25.25
2022-12-05T23:25:10.511Z,25.08
2022-12-05T23:30:03.822Z,27.50
2022-12-05T23:34:59.097Z,23.17
2022-12-05T23:39:57.165Z,21.27
2022-12-05T23:44:51.284Z,19.50
2022-12-05T23:49:45.585Z,22.08
2022-12-05T23:54:39.567Z,24.60
2022-12-05T23:59:33.584Z,20.67
